MDT,Max TemperatureF,Mean TemperatureF,Min TemperatureF,Max Dew PointF,MeanDew PointF,Min DewpointF,Max Humidity, Mean Humidity, Min Humidity, Max Sea Level PressureIn, Mean Sea Level PressureIn, Min Sea Level PressureIn, Max VisibilityMiles, Mean VisibilityMiles, Min VisibilityMiles, Max Wind SpeedMPH, Mean Wind SpeedMPH, Max Gust SpeedMPH,PrecipitationIn, CloudCover, Events, WindDirDegrees
2012-9-1,86,66,46,54,49,43,93,60,26,30.34,30.11,29.94,10,8,0,41,5,55,0.70,4,Rain-Thunderstorm,277
2012-9-2,80,65,50,53,48,41,93,60,27,30.27,30.09,30.00,10,10,10,18,6,23,0.02,2,Rain-Thunderstorm,264
2012-9-3,83,66,48,49,42,32,93,55,17,30.28,30.09,30.01,10,10,10,28,7,33,T,1,Thunderstorm,188
2012-9-4,85,63,41,43,32,17,89,49,8,30.17,30.05,29.96,10,10,10,28,6,36,0.00,0,,247
2012-9-5,84,60,35,36,29,17,82,46,9,30.17,30.06,29.98,10,10,10,18,5,24,0.00,0,,257
2012-9-6,83,59,35,45,31,26,76,45,14,30.11,29.99,29.92,10,10,9,28,7,46,T,3,,281
2012-9-7,78,60,42,43,35,26,71,43,15,30.24,30.13,30.03,10,10,10,17,5,29,0.00,2,Rain,310
2012-9-8,81,59,36,34,25,10,76,42,7,30.44,30.26,30.13,10,9,2,9,1,13,0.00,0,,285
2012-9-9,85,59,33,38,28,23,70,41,11,30.35,30.12,29.99,10,10,10,20,5,28,0.00,0,,286
2012-9-10,85,61,37,44,36,31,76,45,14,30.08,29.96,29.88,10,10,10,20,5,25,T,1,,275
2012-9-11,68,55,42,54,48,38,93,68,43,30.15,30.01,29.88,10,10,2,22,2,28,0.17,6,Rain,153
2012-9-12,73,56,38,51,43,25,100,59,17,30.28,30.18,30.04,10,7,0,13,3,17,0.01,4,Fog,247
2012-9-13,76,53,30,36,29,21,92,53,13,30.50,30.38,30.29,10,10,9,10,2,14,0.00,0,,358
2012-9-14,81,56,31,34,28,15,85,47,9,30.44,30.31,30.20,10,10,10,12,2,18,0.00,0,,253
2012-9-15,83,58,32,33,23,3,76,41,5,30.31,30.19,30.09,10,10,10,16,4,22,0.00,0,,269
2012-9-16,82,57,31,29,23,17,78,44,9,30.21,30.07,29.93,10,10,10,33,6,46,T,2,Rain,284
2012-9-17,75,56,37,35,28,22,61,39,16,30.20,30.03,29.94,10,10,10,16,5,31,0.00,1,,306
2012-9-18,76,53,29,32,26,22,72,43,13,30.31,30.18,30.10,10,10,7,16,3,21,0.00,0,,256
2012-9-19,78,54,30,33,25,18,78,44,10,30.29,30.18,30.11,10,10,9,13,2,16,0.00,0,,323
2012-9-20,80,55,29,36,26,19,72,42,11,30.33,30.17,30.09,10,10,10,15,2,22,0.00,0,,310
2012-9-21,79,54,29,29,25,20,72,42,11,30.29,30.17,30.08,10,9,7,13,1,15,0.00,0,,318
2012-9-22,83,57,31,38,25,15,70,40,9,30.28,30.15,30.06,10,10,9,15,2,25,0.00,0,,268
2012-9-23,83,58,33,34,27,21,69,41,12,30.23,30.10,30.00,10,10,10,23,8,39,0.00,3,,240
2012-9-24,77,62,46,45,39,28,71,45,19,30.12,29.97,29.86,10,10,10,33,6,40,T,3,Rain-Thunderstorm,229
2012-9-25,67,55,43,47,41,36,86,62,37,30.14,29.98,29.91,10,10,5,18,4,24,0.25,7,Rain,218
2012-9-26,62,55,48,47,45,42,93,72,51,30.24,30.09,29.98,10,9,2,18,3,23,0.31,7,Rain,94
2012-9-27,64,53,42,45,42,40,93,68,43,30.22,30.17,30.11,10,10,4,9,2,12,0.06,4,Rain,4
2012-9-28,72,54,35,42,37,27,92,56,19,30.24,30.14,30.04,10,10,10,9,2,12,0.00,0,,350
2012-9-29,75,54,33,41,36,29,92,56,19,30.22,30.14,30.08,10,10,10,21,3,28,0.00,3,,297
2012-9-30,74,55,35,41,36,28,92,56,20,30.28,30.18,30.12,10,10,10,15,2,21,0.00,2,,259